Time;durP1;ratioP1;P1;durP2;ratioP2;P2;SDS_P1;SDS_P2;PMS_P1;PMS_P2;Temp;Humidity;BMP_temperature;BMP_pressure;BME280_temperature;BME280_humidity;BME280_pressure;Samples;Min_cycle;Max_cycle;Signal;HPM_P1;HPM_P2
2022/09/16 00:01:15;;;;;;;2.13;1.00;;;12.50;99.90;;;;;;5052102;28;20469;-64
2022/09/16 00:03:41;;;;;;;2.95;1.10;;;12.50;99.90;;;;;;5052414;28;20025;-64
2022/09/16 00:06:24;;;;;;;1.95;1.00;;;12.50;99.90;;;;;;5052394;28;20033;-64
2022/09/16 00:08:50;;;;;;;3.50;0.77;;;12.60;99.90;;;;;;5051967;28;20028;-66
2022/09/16 00:11:17;;;;;;;2.78;1.05;;;12.70;99.90;;;;;;5051177;28;20079;-66
2022/09/16 00:13:43;;;;;;;2.13;1.02;;;12.70;99.90;;;;;;5052637;28;20025;-63
2022/09/16 00:16:14;;;;;;;4.63;1.30;;;12.70;99.90;;;;;;5050474;28;20123;-64
2022/09/16 00:18:40;;;;;;;2.33;1.08;;;12.70;99.90;;;;;;5052539;28;20048;-63
2022/09/16 00:21:08;;;;;;;3.70;1.27;;;12.70;99.90;;;;;;5050917;28;20366;-63
2022/09/16 00:23:33;;;;;;;4.20;1.10;;;12.80;99.90;;;;;;5051709;28;20032;-64
2022/09/16 00:25:59;;;;;;;2.15;0.93;;;12.80;99.90;;;;;;5052145;28;20012;-63
2022/09/16 00:28:25;;;;;;;2.15;0.80;;;12.80;99.90;;;;;;5052270;28;20049;-64
2022/09/16 00:30:50;;;;;;;2.67;0.85;;;12.80;99.80;;;;;;5051803;28;20386;-63
2022/09/16 00:33:17;;;;;;;4.63;1.45;;;12.80;99.70;;;;;;5051969;28;20041;-63
2022/09/16 00:35:43;;;;;;;3.42;0.93;;;12.80;99.80;;;;;;5052105;28;20035;-63
2022/09/16 00:38:08;;;;;;;5.30;1.58;;;12.80;99.50;;;;;;5051914;28;20033;-63
2022/09/16 00:40:42;;;;;;;3.78;1.17;;;12.80;99.30;;;;;;5051996;28;20075;-63
2022/09/16 00:43:11;;;;;;;2.63;1.40;;;12.80;99.20;;;;;;5051327;28;20025;-62
2022/09/16 00:45:37;;;;;;;2.42;1.23;;;12.80;99.20;;;;;;5051935;28;20049;-63
2022/09/16 00:48:06;;;;;;;3.47;1.40;;;12.80;99.20;;;;;;5051767;28;20063;-66
2022/09/16 00:50:42;;;;;;;2.83;1.40;;;12.80;99.30;;;;;;5051340;28;20051;-63
2022/09/16 00:53:21;;;;;;;6.97;1.20;;;12.80;99.30;;;;;;5051828;28;20021;-63
2022/09/16 00:55:50;;;;;;;3.83;1.10;;;12.70;99.30;;;;;;5052166;28;20100;-63
2022/09/16 00:58:34;;;;;;;1.77;1.00;;;12.70;99.40;;;;;;5050900;28;20567;-66
2022/09/16 01:01:01;;;;;;;5.05;0.95;;;12.80;99.60;;;;;;5051333;28;20045;-63
2022/09/16 01:03:29;;;;;;;4.40;0.90;;;12.70;99.60;;;;;;5051919;28;20032;-63
2022/09/16 01:05:54;;;;;;;5.18;1.17;;;12.70;99.70;;;;;;5049960;28;20033;-65
2022/09/16 01:08:20;;;;;;;2.58;0.98;;;12.70;99.80;;;;;;5051420;28;20068;-64
2022/09/16 01:10:46;;;;;;;4.47;1.08;;;12.70;99.90;;;;;;5051249;28;20037;-65
2022/09/16 01:13:14;;;;;;;2.95;1.20;;;12.70;99.90;;;;;;5051025;28;20107;-63
2022/09/16 01:16:06;;;;;;;2.60;1.15;;;12.70;99.90;;;;;;5051700;28;20029;-63
2022/09/16 01:18:50;;;;;;;2.95;1.33;;;12.70;99.90;;;;;;5051155;28;20021;-64
2022/09/16 01:21:37;;;;;;;6.75;1.40;;;12.60;99.90;;;;;;5050019;28;20481;-63
2022/09/16 01:24:21;;;;;;;3.38;1.05;;;12.60;99.90;;;;;;5051299;28;20113;-63
2022/09/16 01:26:56;;;;;;;4.93;1.10;;;12.50;99.90;;;;;;5050606;28;20021;-63
2022/09/16 01:29:51;;;;;;;2.40;0.98;;;12.50;99.90;;;;;;5051027;28;20025;-62
2022/09/16 01:32:28;;;;;;;2.03;0.82;;;12.50;99.90;;;;;;5044838;28;20041;-63
2022/09/16 01:35:05;;;;;;;2.75;1.15;;;12.50;99.90;;;;;;5051401;28;20057;-62
2022/09/16 01:37:54;;;;;;;3.80;0.98;;;12.50;99.90;;;;;;5050997;28;20096;-63
2022/09/16 01:40:28;;;;;;;4.72;1.20;;;12.40;99.90;;;;;;5050386;28;20033;-61
2022/09/16 01:43:16;;;;;;;5.25;1.10;;;12.40;99.90;;;;;;5030430;28;20076;-62
2022/09/16 01:45:57;;;;;;;4.47;1.10;;;12.40;99.90;;;;;;5029025;28;20079;-62
2022/09/16 01:48:40;;;;;;;2.17;0.82;;;12.30;99.90;;;;;;5030851;28;20490;-62
2022/09/16 01:51:14;;;;;;;3.47;1.00;;;12.30;99.90;;;;;;5031069;28;20041;-64
2022/09/16 01:53:54;;;;;;;3.13;1.25;;;12.30;99.90;;;;;;5030595;28;20449;-65
2022/09/16 01:56:31;;;;;;;5.57;1.15;;;12.20;99.90;;;;;;5030922;28;20033;-63
2022/09/16 01:59:02;;;;;;;5.93;1.42;;;12.20;99.90;;;;;;5029909;28;20105;-65
2022/09/16 02:01:40;;;;;;;2.58;1.02;;;12.20;99.90;;;;;;5030341;28;20018;-63
2022/09/16 02:04:14;;;;;;;2.28;0.90;;;12.10;99.90;;;;;;5030381;28;20406;-63
2022/09/16 02:06:42;;;;;;;3.85;1.15;;;12.10;99.90;;;;;;5030730;28;20045;-63
2022/09/16 02:09:16;;;;;;;2.97;1.13;;;12.00;99.90;;;;;;5029894;28;20018;-66
2022/09/16 02:11:45;;;;;;;2.00;1.02;;;12.00;99.90;;;;;;5031759;28;20025;-63
2022/09/16 02:14:22;;;;;;;6.30;1.10;;;11.90;99.90;;;;;;5034130;28;20053;-63
2022/09/16 02:16:58;;;;;;;4.10;0.93;;;11.90;99.90;;;;;;5034985;28;20025;-64
2022/09/16 02:20:00;;;;;;;3.67;1.00;;;11.90;99.90;;;;;;5034564;28;20474;-63
2022/09/16 02:22:33;;;;;;;6.82;1.13;;;11.80;99.90;;;;;;5034190;28;20061;-62
2022/09/16 02:25:02;;;;;;;4.05;1.38;;;11.80;99.90;;;;;;5034628;28;20025;-64
2022/09/16 02:27:29;;;;;;;3.75;1.08;;;11.80;99.90;;;;;;5034483;28;20909;-63
2022/09/16 02:30:01;;;;;;;4.45;1.27;;;11.80;99.90;;;;;;5034113;28;20025;-63
2022/09/16 02:32:28;;;;;;;3.80;1.38;;;11.80;99.90;;;;;;5034705;28;20021;-63
2022/09/16 02:34:56;;;;;;;4.47;1.50;;;11.80;99.90;;;;;;5034483;28;20021;-64
2022/09/16 02:38:00;;;;;;;3.50;1.05;;;11.90;99.90;;;;;;5033750;28;20085;-63
2022/09/16 02:40:36;;;;;;;4.63;1.25;;;11.80;99.90;;;;;;5034506;28;20417;-63
2022/09/16 02:43:02;;;;;;;2.92;1.20;;;11.80;99.90;;;;;;5033952;28;20028;-63
2022/09/16 02:45:45;;;;;;;2.67;1.25;;;11.80;99.90;;;;;;5034088;28;20060;-64
2022/09/16 02:48:30;;;;;;;2.83;1.30;;;11.80;99.90;;;;;;5033893;28;20052;-65
2022/09/16 02:51:37;;;;;;;2.20;1.10;;;11.90;99.90;;;;;;5033554;28;20063;-63
2022/09/16 02:54:21;;;;;;;1.90;1.02;;;11.90;99.90;;;;;;5034057;28;20065;-63
2022/09/16 02:56:47;;;;;;;5.00;1.10;;;11.90;99.90;;;;;;5033660;28;20593;-63
2022/09/16 02:59:14;;;;;;;5.38;1.48;;;12.00;99.90;;;;;;5033998;28;20112;-65
2022/09/16 03:01:43;;;;;;;3.33;1.17;;;12.00;99.90;;;;;;5034028;28;20025;-64
2022/09/16 03:04:13;;;;;;;5.32;1.42;;;12.10;99.90;;;;;;5033066;28;20022;-65
2022/09/16 03:06:38;;;;;;;2.67;1.15;;;12.10;99.90;;;;;;5034142;28;20029;-63
2022/09/16 03:09:08;;;;;;;4.55;1.10;;;12.20;99.90;;;;;;5033294;28;20014;-64
2022/09/16 03:12:00;;;;;;;2.63;1.10;;;12.20;99.90;;;;;;5033156;28;20049;-64
2022/09/16 03:15:08;;;;;;;1.92;0.90;;;12.10;99.90;;;;;;5033866;28;20021;-63
2022/09/16 03:18:12;;;;;;;4.57;1.23;;;12.20;99.90;;;;;;5033143;28;20021;-64
2022/09/16 03:20:47;;;;;;;3.33;1.17;;;12.20;99.90;;;;;;5033977;28;20117;-65
2022/09/16 03:23:43;;;;;;;2.03;1.00;;;12.10;99.90;;;;;;5032895;28;20029;-62
2022/09/16 03:26:14;;;;;;;3.78;1.08;;;12.10;99.90;;;;;;5031433;28;20140;-62
2022/09/16 03:28:58;;;;;;;3.58;1.23;;;12.20;99.90;;;;;;5033831;28;20024;-62
2022/09/16 03:31:33;;;;;;;3.97;1.30;;;12.10;99.90;;;;;;5033298;28;20069;-63
2022/09/16 03:34:08;;;;;;;5.47;1.52;;;12.20;99.90;;;;;;5033619;28;20018;-63
2022/09/16 03:36:43;;;;;;;1.75;0.95;;;12.10;99.90;;;;;;5033390;28;20033;-63
2022/09/16 03:39:10;;;;;;;4.50;1.10;;;12.10;99.90;;;;;;5032485;28;20022;-63
2022/09/16 03:41:36;;;;;;;4.28;1.13;;;12.10;99.90;;;;;;5033181;28;20021;-64
2022/09/16 03:44:02;;;;;;;2.70;1.02;;;12.20;99.90;;;;;;5032903;28;20028;-62
2022/09/16 03:46:27;;;;;;;5.32;1.20;;;12.20;99.90;;;;;;5032425;28;20029;-63
2022/09/16 03:48:55;;;;;;;2.13;1.00;;;12.10;99.90;;;;;;5033181;28;20087;-62
2022/09/16 03:51:21;;;;;;;3.15;0.90;;;12.10;99.90;;;;;;5032594;28;20163;-62
2022/09/16 03:53:46;;;;;;;5.22;1.38;;;12.10;99.90;;;;;;5032704;28;20028;-62
2022/09/16 03:56:12;;;;;;;3.33;1.10;;;12.10;99.90;;;;;;5032652;28;20025;-63
2022/09/16 03:58:38;;;;;;;3.47;0.90;;;12.10;99.90;;;;;;5032941;28;20025;-63
2022/09/16 04:01:03;;;;;;;6.20;1.50;;;12.10;99.90;;;;;;5031974;28;20059;-63
2022/09/16 04:03:30;;;;;;;3.13;0.95;;;12.10;99.90;;;;;;5032972;28;20025;-62
2022/09/16 04:05:56;;;;;;;6.03;1.73;;;12.10;99.90;;;;;;5032538;28;20036;-62
2022/09/16 04:08:22;;;;;;;3.88;1.10;;;12.10;99.90;;;;;;5032202;28;20112;-63
2022/09/16 04:11:14;;;;;;;3.88;1.08;;;12.10;99.90;;;;;;5032899;28;20033;-62
2022/09/16 04:13:39;;;;;;;4.20;1.73;;;12.10;99.90;;;;;;5031851;28;20038;-62
2022/09/16 04:16:05;;;;;;;3.72;1.20;;;12.00;99.90;;;;;;5032191;28;20033;-63
2022/09/16 04:18:32;;;;;;;4.00;0.77;;;12.00;99.90;;;;;;5032708;28;20162;-62
2022/09/16 04:21:00;;;;;;;2.35;1.00;;;12.10;99.90;;;;;;5031969;28;20112;-62
2022/09/16 04:23:27;;;;;;;1.55;0.80;;;12.10;99.90;;;;;;5032262;28;20475;-63
2022/09/16 04:25:57;;;;;;;3.03;0.88;;;12.10;99.90;;;;;;5032687;28;20029;-63
2022/09/16 04:28:23;;;;;;;2.05;0.85;;;12.10;99.90;;;;;;5031475;28;20029;-63
2022/09/16 04:30:49;;;;;;;1.60;0.80;;;12.00;99.90;;;;;;5032048;28;20137;-62
2022/09/16 04:33:15;;;;;;;3.05;0.98;;;12.00;99.90;;;;;;5039025;28;20100;-62
2022/09/16 04:35:40;;;;;;;3.75;0.98;;;12.00;99.90;;;;;;5048652;28;20036;-62
2022/09/16 04:38:06;;;;;;;2.28;1.05;;;12.00;99.90;;;;;;5051479;28;20021;-63
2022/09/16 04:40:32;;;;;;;3.45;1.20;;;12.00;99.90;;;;;;5050767;28;20381;-63
2022/09/16 04:42:57;;;;;;;1.38;0.75;;;12.00;99.90;;;;;;5050492;28;20022;-63
2022/09/16 04:45:23;;;;;;;2.83;0.85;;;12.00;99.90;;;;;;5050406;28;20025;-62
2022/09/16 04:47:55;;;;;;;3.67;1.00;;;11.90;99.90;;;;;;5050524;28;20078;-62
2022/09/16 04:50:20;;;;;;;3.42;1.20;;;12.00;99.90;;;;;;5048271;28;20037;-62
2022/09/16 04:52:46;;;;;;;6.00;1.20;;;11.90;99.90;;;;;;5050977;28;20040;-65
2022/09/16 04:55:12;;;;;;;2.15;0.85;;;11.90;99.90;;;;;;5050468;28;20028;-62
2022/09/16 04:57:37;;;;;;;3.60;0.88;;;11.80;99.90;;;;;;5050123;28;20024;-62
2022/09/16 05:00:03;;;;;;;2.10;0.70;;;11.70;99.90;;;;;;5051231;28;20052;-64
2022/09/16 05:02:29;;;;;;;2.50;0.98;;;11.70;99.90;;;;;;5049806;28;20064;-62
2022/09/16 05:04:55;;;;;;;2.15;0.88;;;11.60;99.90;;;;;;5047994;28;20041;-62
2022/09/16 05:07:21;;;;;;;1.10;1.00;;;11.60;99.90;;;;;;5047432;28;20025;-63
2022/09/16 05:09:46;;;;;;;6.13;1.15;;;11.60;99.90;;;;;;5049100;28;20057;-61
2022/09/16 05:12:12;;;;;;;3.97;1.25;;;11.60;99.90;;;;;;5038152;28;20025;-62
2022/09/16 05:14:37;;;;;;;3.88;1.10;;;11.60;99.90;;;;;;5047385;28;20029;-62
2022/09/16 05:17:03;;;;;;;3.28;1.15;;;11.60;99.90;;;;;;5048384;28;20427;-63
2022/09/16 05:19:29;;;;;;;3.20;1.10;;;11.60;99.90;;;;;;5049612;28;20465;-65
2022/09/16 05:21:54;;;;;;;3.58;0.95;;;11.60;99.90;;;;;;5048652;28;20025;-63
2022/09/16 05:24:20;;;;;;;3.53;0.90;;;11.60;99.90;;;;;;5046979;28;20025;-62
2022/09/16 05:26:45;;;;;;;2.17;1.00;;;11.60;99.90;;;;;;5047568;28;20036;-62
2022/09/16 05:29:14;;;;;;;2.13;0.82;;;11.50;99.90;;;;;;5049819;28;20024;-61
2022/09/16 05:31:41;;;;;;;2.97;1.17;;;11.60;99.90;;;;;;5049487;28;20097;-62
2022/09/16 05:34:12;;;;;;;1.67;0.90;;;11.60;99.90;;;;;;5050001;28;20024;-61
2022/09/16 05:36:38;;;;;;;4.18;0.90;;;11.50;99.90;;;;;;5048978;28;20466;-61
2022/09/16 05:39:05;;;;;;;3.97;1.58;;;11.50;99.90;;;;;;5048959;28;20066;-61
2022/09/16 05:41:31;;;;;;;1.25;0.80;;;11.50;99.90;;;;;;5049472;28;20029;-61
2022/09/16 05:44:00;;;;;;;5.15;1.13;;;11.40;99.90;;;;;;5048441;28;20017;-60
2022/09/16 05:46:26;;;;;;;3.75;1.10;;;11.40;99.90;;;;;;5050111;28;20024;-63
2022/09/16 05:48:52;;;;;;;1.42;0.82;;;11.40;99.90;;;;;;5050944;28;20519;-61
2022/09/16 05:51:20;;;;;;;3.53;1.33;;;11.30;99.90;;;;;;5049217;28;20143;-61
2022/09/16 05:53:47;;;;;;;4.93;1.20;;;11.30;99.90;;;;;;5048739;28;20025;-61
2022/09/16 05:56:18;;;;;;;2.25;1.25;;;11.30;99.90;;;;;;5048825;28;20032;-61
2022/09/16 05:58:46;;;;;;;1.77;1.20;;;11.30;99.90;;;;;;5050154;28;20029;-61
2022/09/16 06:01:15;;;;;;;2.97;1.08;;;11.30;99.90;;;;;;5048382;28;20039;-60
2022/09/16 06:03:42;;;;;;;3.13;0.95;;;11.30;99.90;;;;;;5049739;28;20104;-61
2022/09/16 06:06:17;;;;;;;2.25;1.20;;;11.30;99.90;;;;;;5050051;28;20029;-62
2022/09/16 06:08:42;;;;;;;1.80;1.58;;;11.30;99.90;;;;;;5050620;28;20017;-60
2022/09/16 06:11:10;;;;;;;4.80;1.35;;;11.30;99.90;;;;;;5050334;28;20039;-61
2022/09/16 06:13:36;;;;;;;1.55;1.15;;;11.30;99.90;;;;;;5050188;28;20021;-62
2022/09/16 06:16:03;;;;;;;2.67;1.17;;;11.30;99.90;;;;;;5050453;28;20032;-61
2022/09/16 06:18:30;;;;;;;2.60;1.00;;;11.30;99.90;;;;;;5050307;28;20083;-61
2022/09/16 06:20:57;;;;;;;4.35;1.13;;;11.30;99.90;;;;;;5050034;28;20021;-63
2022/09/16 06:23:23;;;;;;;1.20;1.00;;;11.40;99.90;;;;;;5050472;28;20014;-61
2022/09/16 06:25:58;;;;;;;3.83;1.05;;;11.40;99.90;;;;;;5050538;28;20532;-62
2022/09/16 06:28:23;;;;;;;1.77;1.10;;;11.50;99.90;;;;;;5049514;28;20025;-66
2022/09/16 06:30:59;;;;;;;2.03;0.80;;;11.50;99.90;;;;;;5050492;28;20116;-65
2022/09/16 06:33:26;;;;;;;2.45;0.88;;;11.60;99.90;;;;;;5050645;28;20021;-62
2022/09/16 06:35:52;;;;;;;3.50;0.85;;;11.70;99.90;;;;;;5049967;28;20028;-62
2022/09/16 06:38:18;;;;;;;2.53;1.00;;;11.70;99.90;;;;;;5050417;28;20393;-62
2022/09/16 06:40:43;;;;;;;2.78;0.80;;;11.70;99.90;;;;;;5050490;28;20025;-62
2022/09/16 06:43:09;;;;;;;1.75;0.90;;;11.80;99.90;;;;;;5049756;28;20408;-62
2022/09/16 06:45:34;;;;;;;3.72;0.95;;;11.80;99.90;;;;;;5050358;28;20422;-62
2022/09/16 06:48:00;;;;;;;3.75;1.95;;;11.90;99.90;;;;;;5050229;28;20025;-62
2022/09/16 06:50:25;;;;;;;1.55;0.80;;;11.90;99.90;;;;;;5049300;28;20047;-62
2022/09/16 06:52:51;;;;;;;3.08;0.88;;;12.00;99.90;;;;;;5050722;28;20028;-63
2022/09/16 06:55:16;;;;;;;1.85;1.00;;;12.10;99.90;;;;;;5049944;28;20052;-62
2022/09/16 06:57:42;;;;;;;3.75;0.90;;;12.10;99.90;;;;;;5050552;28;20096;-62
2022/09/16 07:00:08;;;;;;;3.10;1.00;;;12.20;99.90;;;;;;5053901;28;20500;-65
2022/09/16 07:02:34;;;;;;;2.97;1.02;;;12.20;99.90;;;;;;5052992;28;20449;-64
2022/09/16 07:05:01;;;;;;;3.50;0.80;;;12.30;99.90;;;;;;5052719;28;20028;-61
2022/09/16 07:07:30;;;;;;;1.63;0.88;;;12.30;99.90;;;;;;5053729;28;20051;-62
2022/09/16 07:09:56;;;;;;;2.20;0.75;;;12.40;99.90;;;;;;5051935;28;20027;-61
2022/09/16 07:12:21;;;;;;;2.85;1.05;;;12.50;99.90;;;;;;5053564;28;20029;-61
2022/09/16 07:14:47;;;;;;;3.47;1.13;;;12.60;99.90;;;;;;5085875;28;20021;-61
2022/09/16 07:17:12;;;;;;;5.57;1.33;;;12.60;99.90;;;;;;5052712;28;20472;-61
2022/09/16 07:19:39;;;;;;;6.40;1.17;;;12.70;99.90;;;;;;5053388;28;20044;-62
2022/09/16 07:22:04;;;;;;;2.45;0.88;;;12.80;99.50;;;;;;5053396;28;20457;-62
2022/09/16 07:24:30;;;;;;;1.00;0.80;;;12.90;99.60;;;;;;5052845;28;20029;-61
2022/09/16 07:26:55;;;;;;;4.57;1.17;;;13.00;99.40;;;;;;5053462;28;20417;-62
2022/09/16 07:29:21;;;;;;;2.60;0.73;;;13.00;99.20;;;;;;5052741;28;20036;-62
2022/09/16 07:31:47;;;;;;;1.83;0.80;;;13.10;98.90;;;;;;5052771;28;20433;-61
2022/09/16 07:34:13;;;;;;;3.00;0.70;;;13.10;98.90;;;;;;5053077;28;20044;-62
2022/09/16 07:36:41;;;;;;;4.53;0.98;;;13.20;98.50;;;;;;5053434;28;20393;-62
2022/09/16 07:39:07;;;;;;;3.50;0.85;;;13.30;98.50;;;;;;5052069;28;20051;-65
2022/09/16 07:41:35;;;;;;;2.25;0.90;;;13.40;98.50;;;;;;5051840;28;20162;-62
2022/09/16 07:44:02;;;;;;;2.92;0.82;;;13.40;98.20;;;;;;5052916;28;20090;-62
2022/09/16 07:46:31;;;;;;;3.05;0.82;;;13.50;98.20;;;;;;5052377;28;20100;-63
2022/09/16 07:48:58;;;;;;;3.35;0.70;;;13.50;97.70;;;;;;5053299;28;20021;-63
2022/09/16 07:51:25;;;;;;;3.08;1.23;;;13.70;97.40;;;;;;5052696;28;20103;-61
2022/09/16 07:53:55;;;;;;;2.17;1.20;;;13.80;97.10;;;;;;5052477;28;20021;-62
2022/09/16 07:56:22;;;;;;;5.65;1.00;;;14.10;97.00;;;;;;5052456;28;20031;-61
2022/09/16 07:58:48;;;;;;;1.83;0.70;;;14.20;95.90;;;;;;5052297;28;20286;-62
2022/09/16 08:01:15;;;;;;;9.02;0.75;;;14.20;95.50;;;;;;5052542;28;20435;-62
2022/09/16 08:03:42;;;;;;;3.72;0.80;;;14.20;94.80;;;;;;5052991;28;20078;-65
2022/09/16 08:06:14;;;;;;;3.35;0.68;;;14.10;94.10;;;;;;5051757;28;20111;-63
2022/09/16 08:08:40;;;;;;;1.52;0.70;;;14.10;94.10;;;;;;5053030;28;20029;-62
2022/09/16 08:11:07;;;;;;;1.15;0.70;;;14.00;94.10;;;;;;5052406;28;20056;-65
2022/09/16 08:13:34;;;;;;;2.80;0.73;;;14.00;94.20;;;;;;5051772;28;20025;-61
2022/09/16 08:16:16;;;;;;;1.98;0.75;;;14.10;93.80;;;;;;5052746;28;20147;-61
2022/09/16 08:18:42;;;;;;;2.92;0.93;;;14.00;94.10;;;;;;5051501;28;20021;-62
2022/09/16 08:21:10;;;;;;;3.03;0.80;;;14.00;93.90;;;;;;5051837;28;20054;-61
2022/09/16 08:23:36;;;;;;;4.32;0.85;;;13.90;94.10;;;;;;5052402;28;20029;-61
2022/09/16 08:26:03;;;;;;;1.33;0.57;;;13.90;94.20;;;;;;5052158;28;20029;-61
2022/09/16 08:28:29;;;;;;;4.07;0.65;;;14.00;94.10;;;;;;5050180;28;20116;-61
2022/09/16 08:30:58;;;;;;;3.35;0.60;;;14.00;93.70;;;;;;5052341;28;20017;-60
2022/09/16 08:33:24;;;;;;;0.85;0.47;;;14.10;92.50;;;;;;5052280;28;20112;-61
2022/09/16 08:36:19;;;;;;;2.35;1.15;;;14.20;91.70;;;;;;5051572;28;20021;-61
2022/09/16 08:38:45;;;;;;;1.13;0.55;;;14.30;91.10;;;;;;5052174;28;20430;-62
2022/09/16 08:41:48;;;;;;;2.28;0.70;;;14.40;90.30;;;;;;5049549;28;20082;-61
2022/09/16 08:44:26;;;;;;;0.77;0.30;;;14.50;89.10;;;;;;5051682;28;20385;-62
2022/09/16 08:47:07;;;;;;;2.38;0.82;;;14.60;86.80;;;;;;5052113;28;20017;-62
2022/09/16 08:49:39;;;;;;;2.17;0.43;;;14.70;86.20;;;;;;5050919;28;20095;-62
2022/09/16 08:52:21;;;;;;;2.28;0.60;;;14.80;86.20;;;;;;5051595;28;20033;-61
2022/09/16 08:54:59;;;;;;;2.10;0.55;;;14.80;85.30;;;;;;5052052;28;20021;-61
2022/09/16 08:57:29;;;;;;;4.70;0.70;;;15.00;85.90;;;;;;5052078;28;20031;-62
2022/09/16 09:00:00;;;;;;;3.50;0.80;;;15.10;85.70;;;;;;5052075;28;20029;-62
2022/09/16 09:02:45;;;;;;;;;;;15.20;84.20;;;;;;5051617;28;20492;-61
2022/09/16 09:05:33;;;;;;;4.05;0.80;;;15.30;83.70;;;;;;5050353;28;19905;-61
2022/09/16 09:08:20;;;;;;;3.35;0.60;;;15.20;82.30;;;;;;5050601;28;20521;-62
2022/09/16 09:10:52;;;;;;;2.63;0.77;;;15.20;81.70;;;;;;5051141;28;20506;-61
2022/09/16 09:13:25;;;;;;;5.78;0.73;;;15.30;82.00;;;;;;5051208;28;20112;-62
2022/09/16 09:16:00;;;;;;;4.30;0.88;;;15.30;81.80;;;;;;5050613;28;20035;-62
2022/09/16 09:18:44;;;;;;;5.80;1.52;;;15.40;81.90;;;;;;5051032;28;20016;-62
2022/09/16 09:21:14;;;;;;;3.55;0.60;;;15.50;81.50;;;;;;5050927;28;20426;-62
2022/09/16 09:23:57;;;;;;;3.38;0.82;;;15.30;82.40;;;;;;5050498;28;20465;-62
2022/09/16 09:26:45;;;;;;;1.48;0.63;;;15.30;82.90;;;;;;5049682;28;20474;-62
2022/09/16 09:29:26;;;;;;;3.00;0.73;;;15.30;83.30;;;;;;5050899;28;20159;-61
2022/09/16 09:31:57;;;;;;;3.70;0.77;;;15.40;82.50;;;;;;5050616;28;20127;-63
2022/09/16 09:34:54;;;;;;;1.48;0.68;;;15.40;82.40;;;;;;5050756;28;20021;-62
2022/09/16 09:37:38;;;;;;;2.83;0.93;;;15.50;81.20;;;;;;5048948;28;20485;-65
2022/09/16 09:40:12;;;;;;;4.85;1.08;;;15.50;81.20;;;;;;5051065;28;20021;-62
2022/09/16 09:43:07;;;;;;;4.70;1.15;;;15.60;80.30;;;;;;5051284;28;20074;-62
2022/09/16 09:45:48;;;;;;;2.53;0.47;;;15.60;79.30;;;;;;5048769;28;20074;-62
2022/09/16 09:48:44;;;;;;;2.70;1.10;;;15.70;78.40;;;;;;5050556;28;20488;-61
2022/09/16 09:51:33;;;;;;;4.00;0.90;;;15.70;76.90;;;;;;5050341;28;20080;-62
2022/09/16 09:54:14;;;;;;;1.55;0.50;;;15.80;75.60;;;;;;5051147;28;20018;-62
2022/09/16 09:56:43;;;;;;;;;;;16.00;76.30;;;;;;5051089;28;20021;-62
2022/09/16 09:59:33;;;;;;;2.55;0.70;;;16.20;74.70;;;;;;5050039;28;19916;-61
2022/09/16 10:02:00;;;;;;;0.85;0.43;;;16.30;72.70;;;;;;5050827;28;20024;-61
2022/09/16 10:04:29;;;;;;;2.65;0.65;;;16.40;72.90;;;;;;5050873;28;20591;-62
2022/09/16 10:06:57;;;;;;;1.45;0.45;;;16.50;71.60;;;;;;5050037;28;20104;-62
2022/09/16 10:09:23;;;;;;;1.80;0.50;;;16.50;70.20;;;;;;5050486;28;20017;-61
2022/09/16 10:11:54;;;;;;;2.55;0.70;;;16.50;69.40;;;;;;5050643;28;20055;-61
2022/09/16 10:14:32;;;;;;;2.75;0.55;;;16.60;69.00;;;;;;5049963;28;20029;-63
2022/09/16 10:17:04;;;;;;;0.90;0.50;;;16.50;69.60;;;;;;5050599;28;20057;-63
2022/09/16 10:19:34;;;;;;;3.08;0.68;;;16.60;69.30;;;;;;5050064;28;20021;-64
2022/09/16 10:22:29;;;;;;;3.90;1.10;;;16.70;70.10;;;;;;5050767;28;20052;-62
2022/09/16 10:24:58;;;;;;;3.25;0.70;;;16.90;66.70;;;;;;5049248;28;20028;-62
2022/09/16 10:27:28;;;;;;;1.75;0.68;;;16.70;68.10;;;;;;5048394;28;20492;-62
2022/09/16 10:30:13;;;;;;;2.97;0.77;;;16.60;69.30;;;;;;5050042;28;20022;-63
2022/09/16 10:33:04;;;;;;;4.57;0.90;;;16.60;70.40;;;;;;5051069;28;20048;-63
2022/09/16 10:35:35;;;;;;;1.40;0.70;;;16.70;70.60;;;;;;5053859;28;20034;-62
2022/09/16 10:38:05;;;;;;;3.20;0.68;;;16.70;70.90;;;;;;5054265;28;20028;-62
2022/09/16 10:40:31;;;;;;;2.25;0.70;;;16.70;70.80;;;;;;5053546;28;20025;-62
2022/09/16 10:43:02;;;;;;;2.85;0.77;;;16.60;71.00;;;;;;5054408;28;20539;-63
2022/09/16 10:45:45;;;;;;;3.60;0.60;;;16.60;71.40;;;;;;5052691;28;20108;-62
2022/09/16 10:48:14;;;;;;;2.75;0.50;;;16.40;71.60;;;;;;5053294;28;20071;-61
2022/09/16 10:50:52;;;;;;;4.40;0.65;;;16.30;71.70;;;;;;5054201;28;20106;-61
2022/09/16 10:53:31;;;;;;;1.02;0.60;;;16.40;70.00;;;;;;5053944;28;20108;-61
2022/09/16 10:55:59;;;;;;;2.47;0.75;;;16.40;67.60;;;;;;5052506;28;20032;-60
2022/09/16 10:58:25;;;;;;;1.77;0.63;;;16.50;68.10;;;;;;5053777;28;20025;-61
2022/09/16 11:00:56;;;;;;;4.13;1.10;;;16.70;68.10;;;;;;5052761;28;20017;-61
2022/09/16 11:03:31;;;;;;;1.73;0.75;;;16.80;67.00;;;;;;5053041;28;20032;-62
2022/09/16 11:06:21;;;;;;;3.00;1.08;;;16.90;66.40;;;;;;5053684;28;20527;-62
2022/09/16 11:09:01;;;;;;;4.05;0.88;;;16.80;66.60;;;;;;5051025;28;20033;-62
2022/09/16 11:11:37;;;;;;;3.13;0.80;;;16.80;66.40;;;;;;5048212;28;20118;-62
2022/09/16 11:14:22;;;;;;;4.97;0.88;;;16.80;67.30;;;;;;5044980;28;20021;-60
2022/09/16 11:17:03;;;;;;;2.70;1.00;;;16.90;66.40;;;;;;5053735;28;20100;-62
2022/09/16 11:20:05;;;;;;;5.38;1.17;;;17.00;66.80;;;;;;5052599;28;20029;-61
2022/09/16 11:22:45;;;;;;;;;;;17.20;67.00;;;;;;5014966;28;20036;-60
2022/09/16 11:25:19;;;;;;;2.13;0.80;;;17.30;67.90;;;;;;5045965;28;20073;-62
2022/09/16 11:27:52;;;;;;;1.33;0.63;;;17.00;70.00;;;;;;5038173;28;20052;-61
2022/09/16 11:30:23;;;;;;;4.30;0.85;;;16.60;71.80;;;;;;5031119;28;20650;-63
2022/09/16 11:33:34;;;;;;;2.72;0.60;;;16.20;73.40;;;;;;5050706;28;20037;-61
2022/09/16 11:36:32;;;;;;;4.78;0.75;;;16.00;75.30;;;;;;5006015;28;20142;-63
2022/09/16 11:39:00;;;;;;;1.73;0.82;;;15.80;76.80;;;;;;5039199;28;20041;-63
2022/09/16 11:41:47;;;;;;;4.00;0.80;;;15.80;77.30;;;;;;5050566;28;20033;-64
2022/09/16 11:44:29;;;;;;;3.92;0.80;;;16.00;76.60;;;;;;5049364;28;20063;-64
2022/09/16 11:47:08;;;;;;;3.53;0.95;;;16.20;75.10;;;;;;5051758;28;20032;-63
2022/09/16 11:49:46;;;;;;;3.42;0.80;;;16.50;73.90;;;;;;5047293;28;20028;-63
2022/09/16 11:52:24;;;;;;;2.75;0.98;;;16.80;71.80;;;;;;5050112;28;20043;-61
2022/09/16 11:55:01;;;;;;;1.85;0.70;;;16.80;70.60;;;;;;5051261;28;20021;-63
2022/09/16 11:57:36;;;;;;;2.97;0.80;;;16.90;68.40;;;;;;5048245;28;20032;-62
2022/09/16 12:00:18;;;;;;;3.33;0.60;;;16.70;64.20;;;;;;5050262;28;20075;-62
2022/09/16 12:02:48;;;;;;;3.13;0.70;;;16.60;62.90;;;;;;5050465;28;20106;-61
2022/09/16 12:05:21;;;;;;;1.20;0.60;;;16.50;63.40;;;;;;5051074;28;20123;-62
2022/09/16 12:08:24;;;;;;;2.85;0.93;;;16.50;63.70;;;;;;5051252;28;20044;-61
2022/09/16 12:11:19;;;;;;;2.03;0.70;;;16.50;61.40;;;;;;5049746;28;20053;-62
2022/09/16 12:13:52;;;;;;;0.88;0.50;;;16.50;62.90;;;;;;5049628;28;20028;-62
2022/09/16 12:16:45;;;;;;;3.80;0.70;;;16.60;62.00;;;;;;5039808;28;20100;-65
2022/09/16 12:19:45;;;;;;;2.08;0.75;;;16.70;60.20;;;;;;5028827;28;20488;-66
2022/09/16 12:22:22;;;;;;;1.77;0.80;;;16.80;57.70;;;;;;5062734;28;20069;-67
2022/09/16 12:24:53;;;;;;;3.75;0.98;;;16.80;55.80;;;;;;5047859;28;20029;-67
2022/09/16 12:27:36;;;;;;;2.42;0.80;;;16.70;55.30;;;;;;5051740;28;20461;-65
2022/09/16 12:30:33;;;;;;;1.63;0.70;;;16.70;56.10;;;;;;5052038;28;20075;-67
2022/09/16 12:33:05;;;;;;;1.70;0.65;;;16.80;57.30;;;;;;5048332;28;20106;-64
2022/09/16 12:35:41;;;;;;;2.17;0.60;;;16.90;57.40;;;;;;5032831;28;20026;-65
2022/09/16 12:38:18;;;;;;;4.93;1.25;;;17.00;56.60;;;;;;5031976;28;20060;-63
2022/09/16 12:41:00;;;;;;;2.38;0.93;;;17.20;56.50;;;;;;5042866;28;20113;-62
2022/09/16 12:43:44;;;;;;;6.18;0.90;;;17.30;56.60;;;;;;5049867;28;20055;-62
2022/09/16 12:46:42;;;;;;;2.50;0.95;;;17.40;57.00;;;;;;5048490;28;20064;-64
2022/09/16 12:49:33;;;;;;;5.15;0.90;;;17.50;55.50;;;;;;5043474;28;20061;-65
2022/09/16 12:52:30;;;;;;;3.50;1.30;;;17.60;55.60;;;;;;5049278;28;20041;-64
2022/09/16 12:55:23;;;;;;;5.32;1.38;;;17.80;55.90;;;;;;5051782;28;20029;-63
2022/09/16 12:58:19;;;;;;;4.68;1.17;;;18.00;56.10;;;;;;5052225;28;20033;-64
2022/09/16 13:01:21;;;;;;;2.67;0.70;;;18.10;56.50;;;;;;5050104;28;20060;-63
2022/09/16 13:03:55;;;;;;;5.55;0.82;;;18.20;58.70;;;;;;5061261;28;20032;-64
2022/09/16 13:06:32;;;;;;;3.83;0.85;;;18.00;59.40;;;;;;5054150;28;20485;-63
2022/09/16 13:09:16;;;;;;;1.95;0.70;;;17.80;61.50;;;;;;5057246;28;20016;-64
2022/09/16 13:11:53;;;;;;;2.97;0.90;;;17.60;61.60;;;;;;5071685;28;20036;-63
2022/09/16 13:14:23;;;;;;;1.75;0.77;;;17.50;62.80;;;;;;5071539;28;20528;-62
2022/09/16 13:16:53;;;;;;;4.07;0.90;;;17.30;63.20;;;;;;5044651;28;20025;-63
2022/09/16 13:19:49;;;;;;;4.30;1.27;;;17.20;63.40;;;;;;5050495;28;20025;-63
2022/09/16 13:22:35;;;;;;;4.53;1.00;;;17.10;62.50;;;;;;5050078;28;20056;-63